createdAt,value
2023-08-11T00:00:22.842Z,75.46
2023-08-11T00:02:53.799Z,75.59
2023-08-11T00:05:21.804Z,75.90
2023-08-11T00:07:53.187Z,76.18
2023-08-11T00:10:21.481Z,76.35
2023-08-11T00:12:49.281Z,76.54
2023-08-11T00:15:18.129Z,76.46
2023-08-11T00:17:46.031Z,76.35
2023-08-11T00:20:13.820Z,76.32
2023-08-11T00:22:41.661Z,76.17
2023-08-11T00:25:09.851Z,76.14
2023-08-11T00:27:37.598Z,76.06
2023-08-11T00:30:06.822Z,75.98
2023-08-11T00:32:34.643Z,76.00
2023-08-11T00:35:03.723Z,76.19
2023-08-11T00:37:32.166Z,76.44
2023-08-11T00:39:59.767Z,76.58
2023-08-11T00:42:27.453Z,76.66
2023-08-11T00:44:55.214Z,76.58
2023-08-11T00:47:23.374Z,76.62
2023-08-11T00:49:51.710Z,76.73
2023-08-11T00:52:20.526Z,76.64
2023-08-11T00:54:48.397Z,76.56
2023-08-11T00:57:16.471Z,76.59
2023-08-11T00:59:44.333Z,76.85
2023-08-11T01:02:12.587Z,77.07
2023-08-11T01:04:41.476Z,77.27
2023-08-11T01:07:32.754Z,77.68
2023-08-11T01:10:08.892Z,77.91
2023-08-11T01:13:07.713Z,77.95
2023-08-11T01:15:41.865Z,77.49
2023-08-11T01:18:12.041Z,77.16
2023-08-11T01:20:41.084Z,76.95
2023-08-11T01:23:10.476Z,76.89
2023-08-11T01:25:38.815Z,76.88
2023-08-11T01:28:06.810Z,76.82
2023-08-11T01:30:36.781Z,76.76
2023-08-11T01:33:05.770Z,76.38
2023-08-11T01:35:40.791Z,76.28
2023-08-11T01:38:11.411Z,76.10
2023-08-11T01:40:40.339Z,75.97
2023-08-11T01:43:11.618Z,76.01
2023-08-11T01:45:40.769Z,75.86
2023-08-11T01:48:10.293Z,75.81
2023-08-11T01:50:39.117Z,75.82
2023-08-11T01:53:07.201Z,75.80
2023-08-11T01:55:36.585Z,75.67
2023-08-11T01:58:08.500Z,75.61
2023-08-11T02:00:36.774Z,75.65
2023-08-11T02:03:04.968Z,75.59
2023-08-11T02:05:32.952Z,75.50
2023-08-11T02:08:01.454Z,75.39
2023-08-11T02:10:30.068Z,75.64
2023-08-11T02:12:58.377Z,75.70
2023-08-11T02:15:26.477Z,75.57
2023-08-11T02:17:55.193Z,75.63
2023-08-11T02:20:24.524Z,75.88
2023-08-11T02:22:54.250Z,76.06
2023-08-11T02:25:27.231Z,76.11
2023-08-11T02:27:55.406Z,76.10
2023-08-11T02:30:23.699Z,76.28
2023-08-11T02:32:52.213Z,76.29
2023-08-11T02:35:20.300Z,75.95
2023-08-11T02:37:48.445Z,75.71
2023-08-11T02:40:16.904Z,75.61
2023-08-11T02:42:50.965Z,75.59
2023-08-11T02:45:18.995Z,75.54
2023-08-11T02:47:47.538Z,75.36
2023-08-11T02:50:15.912Z,75.32
2023-08-11T02:52:45.480Z,75.14
2023-08-11T02:55:13.551Z,75.02
2023-08-11T02:57:41.840Z,74.75
2023-08-11T03:00:16.820Z,74.65
2023-08-11T03:02:49.388Z,74.68
2023-08-11T03:05:18.153Z,74.72
2023-08-11T03:07:46.105Z,74.70
2023-08-11T03:10:14.233Z,74.50
2023-08-11T03:12:42.308Z,74.32
2023-08-11T03:15:10.529Z,74.32
2023-08-11T03:17:38.807Z,74.23
2023-08-11T03:20:16.839Z,74.18
2023-08-11T03:22:45.523Z,74.05
2023-08-11T03:25:14.124Z,74.00
2023-08-11T03:27:44.491Z,74.21
2023-08-11T03:30:13.556Z,74.37
2023-08-11T03:32:41.728Z,74.54
2023-08-11T03:35:10.032Z,74.65
2023-08-11T03:37:38.012Z,74.79
2023-08-11T03:40:14.436Z,74.61
2023-08-11T03:42:45.667Z,74.34
2023-08-11T03:45:14.837Z,74.32
2023-08-11T03:47:43.911Z,74.24
2023-08-11T03:50:12.482Z,74.23
2023-08-11T03:52:40.528Z,74.16
2023-08-11T03:55:11.107Z,74.04
2023-08-11T03:57:39.734Z,73.62
2023-08-11T04:00:10.928Z,73.05
2023-08-11T04:02:38.760Z,72.65
2023-08-11T04:05:06.989Z,72.40
2023-08-11T04:07:34.880Z,72.14
2023-08-11T04:10:02.634Z,71.84
2023-08-11T04:12:32.735Z,71.66
2023-08-11T04:15:00.788Z,71.60
2023-08-11T04:17:31.970Z,71.48
2023-08-11T04:20:12.683Z,71.29
2023-08-11T04:22:41.830Z,71.29
2023-08-11T04:25:11.364Z,70.92
2023-08-11T04:27:41.087Z,70.73
2023-08-11T04:30:10.266Z,70.69
2023-08-11T04:32:38.150Z,70.49
2023-08-11T04:35:09.565Z,70.27
2023-08-11T04:37:37.477Z,70.04
2023-08-11T04:40:12.215Z,69.86
2023-08-11T04:42:40.171Z,69.61
2023-08-11T04:45:09.469Z,69.25
2023-08-11T04:47:37.571Z,68.96
2023-08-11T04:50:06.748Z,68.72
2023-08-11T04:52:34.568Z,68.52
2023-08-11T04:55:02.407Z,68.37
2023-08-11T04:57:31.387Z,68.31
2023-08-11T04:59:59.045Z,68.26
2023-08-11T05:02:32.835Z,68.11
2023-08-11T05:05:03.282Z,67.96
2023-08-11T05:07:32.019Z,67.74
2023-08-11T05:10:02.895Z,67.39
2023-08-11T05:12:32.570Z,67.45
2023-08-11T05:15:00.269Z,67.55
2023-08-11T05:17:28.199Z,67.51
2023-08-11T05:19:57.129Z,67.31
2023-08-11T05:22:25.418Z,66.95
2023-08-11T05:24:53.194Z,66.76
2023-08-11T05:27:23.424Z,66.41
2023-08-11T05:29:51.878Z,65.91
2023-08-11T05:32:19.752Z,65.45
2023-08-11T05:34:51.585Z,65.12
2023-08-11T05:37:24.433Z,64.72
2023-08-11T05:39:55.006Z,64.04
2023-08-11T05:42:23.350Z,63.70
2023-08-11T05:44:51.168Z,63.65
2023-08-11T05:47:19.180Z,63.55
2023-08-11T05:49:53.263Z,63.30
2023-08-11T05:52:21.132Z,63.39
2023-08-11T05:54:55.012Z,63.36
2023-08-11T05:57:22.976Z,63.40
2023-08-11T05:59:50.619Z,63.39
2023-08-11T06:02:18.794Z,63.52
2023-08-11T06:04:46.927Z,63.33
2023-08-11T06:07:14.660Z,63.12
2023-08-11T06:09:42.532Z,62.75
2023-08-11T06:12:10.309Z,62.16
2023-08-11T06:14:38.020Z,61.72
2023-08-11T06:17:05.999Z,61.08
2023-08-11T06:19:34.423Z,60.52
2023-08-11T06:22:03.475Z,60.12
2023-08-11T06:24:31.124Z,59.76
2023-08-11T06:26:59.147Z,59.24
2023-08-11T06:29:26.950Z,59.04
2023-08-11T06:31:54.662Z,59.19
2023-08-11T06:34:22.853Z,59.68
2023-08-11T06:36:50.818Z,59.92
2023-08-11T06:39:18.557Z,59.70
2023-08-11T06:41:46.284Z,59.49
2023-08-11T06:44:14.456Z,59.23
2023-08-11T06:46:42.565Z,58.72
2023-08-11T06:49:10.236Z,58.52
2023-08-11T06:51:38.388Z,58.37
2023-08-11T06:54:06.327Z,57.96
2023-08-11T06:56:34.021Z,57.72
2023-08-11T06:59:01.820Z,57.74
2023-08-11T07:01:29.523Z,57.67
2023-08-11T07:03:57.983Z,57.86
2023-08-11T07:06:27.895Z,57.91
2023-08-11T07:08:55.579Z,58.01
2023-08-11T07:11:23.269Z,58.06
2023-08-11T07:13:50.935Z,58.24
2023-08-11T07:16:18.734Z,58.62
2023-08-11T07:18:46.367Z,58.88
2023-08-11T07:21:14.012Z,58.67
2023-08-11T07:23:41.753Z,58.32
2023-08-11T07:26:09.504Z,58.00
2023-08-11T07:28:37.274Z,57.73
2023-08-11T07:31:05.000Z,57.49
2023-08-11T07:33:32.812Z,57.85
2023-08-11T07:36:00.420Z,58.16
2023-08-11T07:38:28.102Z,58.61
2023-08-11T07:40:55.910Z,58.95
2023-08-11T07:43:23.606Z,59.03
2023-08-11T07:45:51.352Z,58.50
2023-08-11T07:48:19.873Z,57.96
2023-08-11T07:50:47.558Z,57.45
2023-08-11T07:53:15.585Z,56.86
2023-08-11T07:55:43.232Z,56.40
2023-08-11T07:58:10.995Z,55.81
2023-08-11T08:00:38.816Z,55.41
2023-08-11T08:03:07.069Z,55.14
2023-08-11T08:05:35.366Z,55.39
2023-08-11T08:08:03.139Z,55.31
2023-08-11T08:10:30.946Z,55.14
2023-08-11T08:12:58.816Z,54.99
2023-08-11T08:15:29.623Z,54.55
2023-08-11T08:17:57.569Z,54.44
2023-08-11T08:20:26.091Z,54.95
2023-08-11T08:22:54.007Z,55.39
2023-08-11T08:25:21.776Z,55.65
2023-08-11T08:28:00.826Z,55.93
2023-08-11T08:30:34.464Z,55.56
2023-08-11T08:33:02.365Z,55.16
2023-08-11T08:35:30.126Z,54.91
2023-08-11T08:37:57.732Z,54.37
2023-08-11T08:40:26.608Z,53.88
2023-08-11T08:42:54.944Z,53.38
2023-08-11T08:45:23.895Z,52.85
2023-08-11T08:47:54.299Z,52.49
2023-08-11T08:50:23.659Z,51.83
2023-08-11T08:52:53.466Z,51.28
2023-08-11T08:55:21.385Z,51.36
2023-08-11T08:57:49.128Z,51.65
2023-08-11T09:00:20.014Z,51.28
2023-08-11T09:02:48.348Z,51.04
2023-08-11T09:05:16.255Z,50.78
2023-08-11T09:07:44.096Z,50.81
2023-08-11T09:10:11.859Z,49.88
2023-08-11T09:12:43.623Z,49.71
2023-08-11T09:15:11.929Z,49.29
2023-08-11T09:17:41.045Z,49.10
2023-08-11T09:20:14.134Z,48.95
2023-08-11T09:22:42.142Z,49.25
2023-08-11T09:25:13.957Z,49.47
2023-08-11T09:27:41.913Z,49.92
2023-08-11T09:30:12.052Z,50.48
2023-08-11T09:32:40.306Z,50.52
2023-08-11T09:35:14.144Z,50.16
2023-08-11T09:37:46.631Z,49.66
2023-08-11T09:40:19.076Z,49.37
2023-08-11T09:42:47.238Z,48.71
2023-08-11T09:45:15.521Z,48.04
2023-08-11T09:47:43.274Z,47.52
2023-08-11T09:50:11.150Z,47.14
2023-08-11T09:52:40.567Z,46.91
2023-08-11T09:55:11.254Z,47.37
2023-08-11T09:57:39.082Z,47.70
2023-08-11T10:00:13.006Z,48.02
2023-08-11T10:03:08.560Z,48.32
2023-08-11T10:05:41.511Z,49.00
2023-08-11T10:08:15.491Z,49.31
2023-08-11T10:10:43.690Z,49.40
2023-08-11T10:13:27.298Z,48.78
2023-08-11T10:15:56.761Z,48.40
2023-08-11T10:18:24.908Z,48.89
2023-08-11T10:20:53.236Z,49.31
2023-08-11T10:23:21.024Z,49.39
2023-08-11T10:25:49.878Z,49.06
2023-08-11T10:28:18.814Z,49.17
2023-08-11T10:30:56.969Z,48.68
2023-08-11T10:33:25.255Z,48.38
2023-08-11T10:35:54.813Z,47.41
2023-08-11T10:38:35.008Z,45.61
2023-08-11T10:41:10.623Z,44.61
2023-08-11T10:43:41.825Z,43.38
2023-08-11T10:46:29.281Z,41.79
2023-08-11T10:49:06.023Z,41.31
2023-08-11T10:51:39.419Z,40.95
2023-08-11T10:54:13.198Z,40.41
2023-08-11T10:56:46.240Z,39.58
2023-08-11T10:59:23.044Z,41.10
2023-08-11T11:01:55.856Z,41.25
2023-08-11T11:04:25.008Z,40.99
2023-08-11T11:06:52.833Z,40.01
2023-08-11T11:09:22.617Z,39.17
2023-08-11T11:11:52.885Z,39.30
2023-08-11T11:14:21.118Z,40.19
2023-08-11T11:16:49.273Z,40.41
2023-08-11T11:19:17.063Z,39.83
2023-08-11T11:21:44.967Z,39.32
2023-08-11T11:24:12.810Z,38.62
2023-08-11T11:26:41.307Z,37.37
2023-08-11T11:29:08.944Z,36.22
2023-08-11T11:31:40.233Z,35.37
2023-08-11T11:34:08.416Z,34.78
2023-08-11T11:36:36.530Z,34.34
2023-08-11T11:39:05.912Z,33.49
2023-08-11T11:41:33.988Z,32.94
2023-08-11T11:44:02.101Z,31.92
2023-08-11T11:46:33.347Z,31.43
2023-08-11T11:49:09.496Z,31.90
2023-08-11T11:51:40.558Z,31.82
2023-08-11T11:54:08.380Z,31.88
2023-08-11T11:56:38.028Z,32.15
2023-08-11T11:59:07.399Z,32.83
2023-08-11T12:01:36.578Z,33.16
2023-08-11T12:04:04.935Z,33.35
2023-08-11T12:06:32.691Z,33.05
2023-08-11T12:09:13.032Z,32.36
2023-08-11T12:11:40.843Z,31.75
2023-08-11T12:14:12.563Z,31.22
2023-08-11T12:16:40.418Z,30.74
2023-08-11T12:19:10.975Z,30.50
2023-08-11T12:21:38.825Z,29.75
2023-08-11T12:24:07.899Z,29.07
2023-08-11T12:26:35.612Z,28.41
2023-08-11T12:29:03.507Z,28.37
2023-08-11T12:31:31.335Z,28.08
2023-08-11T12:33:59.085Z,28.38
2023-08-11T12:36:29.791Z,29.06
2023-08-11T12:38:57.508Z,29.04
2023-08-11T12:41:25.418Z,29.28
2023-08-11T12:43:53.039Z,29.29
2023-08-11T12:46:20.743Z,28.85
2023-08-11T12:48:48.482Z,29.48
2023-08-11T12:51:16.171Z,29.80
2023-08-11T12:53:43.942Z,29.89
2023-08-11T12:56:11.611Z,29.73
2023-08-11T12:58:40.549Z,29.25
2023-08-11T13:01:08.545Z,28.71
2023-08-11T13:03:38.915Z,28.66
2023-08-11T13:06:06.574Z,28.20
2023-08-11T13:08:34.301Z,27.12
2023-08-11T13:11:02.045Z,27.15
2023-08-11T13:13:29.795Z,26.57
2023-08-11T13:15:57.449Z,26.13
2023-08-11T13:18:25.732Z,26.70
2023-08-11T13:20:53.582Z,27.05
2023-08-11T13:23:21.360Z,27.18
2023-08-11T13:25:49.024Z,27.06
2023-08-11T13:28:16.608Z,27.00
2023-08-11T13:30:44.316Z,26.28
2023-08-11T13:33:12.331Z,25.55
2023-08-11T13:35:40.062Z,25.23
2023-08-11T13:38:07.895Z,25.42
2023-08-11T13:40:35.935Z,25.98
2023-08-11T13:43:05.434Z,26.08
2023-08-11T13:45:33.414Z,25.82
2023-08-11T13:48:01.585Z,26.08
2023-08-11T13:50:29.331Z,26.63
2023-08-11T13:52:57.255Z,26.34
2023-08-11T13:55:26.239Z,26.00
2023-08-11T13:57:54.043Z,25.81
2023-08-11T14:00:22.278Z,25.86
2023-08-11T14:02:49.989Z,25.97
2023-08-11T14:05:18.279Z,26.40
2023-08-11T14:07:50.042Z,26.86
2023-08-11T14:10:18.334Z,26.90
2023-08-11T14:12:46.047Z,26.77
2023-08-11T14:15:14.037Z,27.09
2023-08-11T14:17:42.239Z,27.45
2023-08-11T14:20:10.920Z,27.72
2023-08-11T14:22:38.547Z,27.82
2023-08-11T14:25:06.757Z,27.82
2023-08-11T14:27:34.451Z,27.73
2023-08-11T14:30:02.284Z,27.46
2023-08-11T14:32:33.705Z,27.70
2023-08-11T14:35:01.529Z,27.68
2023-08-11T14:37:31.704Z,27.96
2023-08-11T14:39:59.353Z,28.22
2023-08-11T14:42:27.062Z,28.56
2023-08-11T14:44:54.764Z,28.46
2023-08-11T14:47:22.546Z,28.63
2023-08-11T14:49:50.178Z,28.60
2023-08-11T14:52:17.976Z,28.75
2023-08-11T14:54:45.734Z,29.04
2023-08-11T14:57:14.516Z,29.31
2023-08-11T14:59:42.722Z,29.95
2023-08-11T15:02:10.513Z,30.41
2023-08-11T15:04:38.642Z,30.63
2023-08-11T15:07:06.674Z,30.63
2023-08-11T15:09:37.436Z,30.54
2023-08-11T15:12:05.426Z,30.45
2023-08-11T15:14:33.117Z,30.73
2023-08-11T15:17:01.586Z,30.71
2023-08-11T15:19:31.304Z,31.10
2023-08-11T15:21:59.044Z,31.35
2023-08-11T15:24:26.706Z,31.43
2023-08-11T15:26:54.343Z,31.55
2023-08-11T15:29:22.060Z,31.51
2023-08-11T15:31:51.058Z,31.64
2023-08-11T15:34:20.450Z,32.02
2023-08-11T15:36:48.207Z,32.20
2023-08-11T15:39:16.703Z,31.97
2023-08-11T15:41:44.283Z,32.17
2023-08-11T15:44:11.973Z,31.95
2023-08-11T15:46:39.699Z,31.95
2023-08-11T15:49:07.482Z,31.99
2023-08-11T15:51:35.101Z,32.08
2023-08-11T15:54:03.044Z,32.61
2023-08-11T15:56:30.729Z,33.24
2023-08-11T15:58:58.945Z,33.71
2023-08-11T16:01:26.726Z,34.27
2023-08-11T16:03:54.559Z,35.03
2023-08-11T16:06:22.407Z,35.81
2023-08-11T16:08:50.096Z,36.41
2023-08-11T16:11:17.920Z,36.99
2023-08-11T16:13:45.829Z,37.27
2023-08-11T16:16:13.582Z,37.85
2023-08-11T16:18:41.504Z,38.29
2023-08-11T16:21:09.252Z,38.73
2023-08-11T16:23:37.294Z,38.98
2023-08-11T16:26:05.439Z,39.13
2023-08-11T16:28:33.761Z,39.72
2023-08-11T16:31:01.789Z,40.03
2023-08-11T16:33:29.683Z,40.36
2023-08-11T16:35:57.498Z,40.82
2023-08-11T16:38:25.162Z,41.15
2023-08-11T16:40:52.786Z,41.43
2023-08-11T16:43:20.533Z,41.72
2023-08-11T16:45:48.147Z,42.04
2023-08-11T16:48:18.003Z,42.61
2023-08-11T16:50:47.345Z,42.86
2023-08-11T16:53:15.183Z,43.15
2023-08-11T16:55:42.964Z,43.54
2023-08-11T16:58:10.717Z,43.97
2023-08-11T17:00:38.561Z,44.35
2023-08-11T17:03:06.569Z,44.63
2023-08-11T17:05:34.381Z,45.03
2023-08-11T17:08:02.211Z,45.31
2023-08-11T17:10:30.268Z,45.45
2023-08-11T17:12:58.330Z,45.84
2023-08-11T17:15:26.306Z,46.06
2023-08-11T17:17:54.048Z,46.19
2023-08-11T17:20:21.893Z,46.44
2023-08-11T17:22:49.626Z,46.61
2023-08-11T17:25:18.224Z,46.78
2023-08-11T17:27:48.124Z,47.28
2023-08-11T17:30:15.979Z,47.56
2023-08-11T17:32:49.648Z,47.59
2023-08-11T17:35:17.771Z,47.73
2023-08-11T17:37:45.409Z,47.97
2023-08-11T17:40:13.756Z,48.24
2023-08-11T17:42:42.553Z,48.48
2023-08-11T17:45:10.531Z,48.81
2023-08-11T17:47:38.201Z,49.37
2023-08-11T17:50:06.642Z,49.60
2023-08-11T17:52:35.259Z,49.81
2023-08-11T17:55:06.056Z,50.08
2023-08-11T17:57:33.967Z,50.26
2023-08-11T18:00:01.563Z,50.71
2023-08-11T18:02:30.296Z,51.13
2023-08-11T18:04:58.127Z,51.33
2023-08-11T18:07:25.788Z,51.70
2023-08-11T18:09:54.595Z,51.96
2023-08-11T18:12:22.971Z,52.14
2023-08-11T18:14:58.734Z,52.43
2023-08-11T18:17:26.620Z,52.73
2023-08-11T18:19:54.451Z,52.84
2023-08-11T18:22:22.733Z,53.32
2023-08-11T18:24:50.468Z,53.53
2023-08-11T18:27:18.107Z,53.76
2023-08-11T18:29:45.799Z,53.77
2023-08-11T18:32:13.820Z,53.89
2023-08-11T18:34:41.601Z,54.08
2023-08-11T18:37:09.271Z,54.28
2023-08-11T18:39:36.909Z,54.33
2023-08-11T18:42:04.897Z,54.66
2023-08-11T18:44:32.577Z,54.83
2023-08-11T18:47:00.356Z,54.96
2023-08-11T18:49:28.648Z,55.34
2023-08-11T18:51:56.496Z,55.48
2023-08-11T18:54:26.103Z,55.73
2023-08-11T18:56:53.723Z,55.90
2023-08-11T18:59:21.446Z,56.33
2023-08-11T19:01:49.194Z,56.57
2023-08-11T19:04:17.405Z,56.74
2023-08-11T19:06:45.119Z,57.06
2023-08-11T19:09:14.352Z,57.24
2023-08-11T19:11:43.659Z,57.45
2023-08-11T19:14:11.485Z,57.75
2023-08-11T19:16:39.993Z,57.98
2023-08-11T19:19:12.432Z,58.22
2023-08-11T19:21:40.696Z,58.41
2023-08-11T19:24:08.516Z,58.64
2023-08-11T19:26:36.326Z,58.95
2023-08-11T19:29:04.291Z,59.01
2023-08-11T19:31:32.055Z,59.28
2023-08-11T19:33:59.916Z,59.28
2023-08-11T19:36:27.744Z,59.33
2023-08-11T19:38:55.563Z,59.43
2023-08-11T19:41:23.247Z,59.60
2023-08-11T19:43:50.898Z,59.74
2023-08-11T19:46:18.821Z,59.76
2023-08-11T19:48:46.575Z,59.93
2023-08-11T19:51:14.500Z,60.07
2023-08-11T19:53:42.345Z,60.24
2023-08-11T19:56:10.069Z,60.55
2023-08-11T19:58:37.962Z,60.74
2023-08-11T20:01:07.230Z,61.03
2023-08-11T20:03:35.548Z,61.20
2023-08-11T20:06:03.908Z,61.19
2023-08-11T20:08:31.734Z,61.23
2023-08-11T20:11:02.919Z,61.23
2023-08-11T20:13:31.010Z,61.27
2023-08-11T20:15:59.444Z,61.38
2023-08-11T20:18:27.992Z,61.49
2023-08-11T20:20:56.342Z,61.48
2023-08-11T20:23:24.064Z,61.73
2023-08-11T20:25:51.803Z,61.66
2023-08-11T20:28:19.468Z,61.85
2023-08-11T20:30:47.180Z,62.08
2023-08-11T20:33:14.938Z,62.21
2023-08-11T20:35:45.604Z,62.25
2023-08-11T20:38:13.576Z,62.27
2023-08-11T20:40:41.427Z,62.30
2023-08-11T20:43:09.460Z,62.43
2023-08-11T20:45:37.311Z,62.44
2023-08-11T20:48:05.497Z,62.46
2023-08-11T20:50:36.227Z,62.67
2023-08-11T20:53:04.344Z,62.74
2023-08-11T20:55:31.977Z,62.79
2023-08-11T20:57:59.651Z,62.90
2023-08-11T21:00:27.419Z,62.84
2023-08-11T21:02:55.241Z,62.94
2023-08-11T21:05:23.018Z,63.02
2023-08-11T21:07:50.762Z,62.99
2023-08-11T21:10:18.642Z,62.96
2023-08-11T21:12:46.475Z,63.07
2023-08-11T21:15:14.967Z,63.08
2023-08-11T21:17:42.789Z,63.09
2023-08-11T21:20:10.690Z,63.12
2023-08-11T21:22:38.548Z,63.20
2023-08-11T21:25:06.419Z,63.27
2023-08-11T21:27:34.168Z,63.30
2023-08-11T21:30:01.921Z,63.43
2023-08-11T21:32:32.002Z,63.49
2023-08-11T21:34:59.724Z,63.60
2023-08-11T21:37:27.519Z,63.74
2023-08-11T21:39:55.672Z,63.87
2023-08-11T21:42:23.870Z,63.95
2023-08-11T21:44:51.557Z,64.06
2023-08-11T21:47:19.242Z,64.32
2023-08-11T21:49:47.246Z,64.56
2023-08-11T21:52:14.948Z,64.69
2023-08-11T21:54:42.883Z,64.77
2023-08-11T21:57:11.744Z,64.83
2023-08-11T21:59:42.487Z,64.77
2023-08-11T22:02:10.446Z,64.83
2023-08-11T22:04:38.617Z,64.83
2023-08-11T22:07:06.554Z,64.95
2023-08-11T22:09:34.858Z,64.95
2023-08-11T22:12:02.760Z,65.05
2023-08-11T22:14:30.526Z,65.06
2023-08-11T22:16:59.057Z,65.13
2023-08-11T22:19:26.994Z,65.23
2023-08-11T22:21:54.727Z,65.35
2023-08-11T22:24:34.553Z,65.37
2023-08-11T22:27:06.715Z,65.42
2023-08-11T22:29:34.390Z,65.55
2023-08-11T22:32:04.414Z,65.66
2023-08-11T22:34:32.249Z,65.70
2023-08-11T22:36:59.935Z,65.68
2023-08-11T22:39:27.729Z,65.67
2023-08-11T22:41:55.551Z,65.70
2023-08-11T22:44:23.278Z,65.62
2023-08-11T22:46:51.762Z,65.64
2023-08-11T22:49:19.368Z,65.60
2023-08-11T22:51:49.840Z,65.67
2023-08-11T22:54:17.693Z,65.70
2023-08-11T22:56:45.389Z,65.82
2023-08-11T22:59:13.055Z,65.88
2023-08-11T23:01:40.793Z,65.91
2023-08-11T23:04:08.596Z,65.97
2023-08-11T23:06:39.053Z,65.98
2023-08-11T23:09:07.804Z,66.06
2023-08-11T23:11:35.914Z,66.10
2023-08-11T23:14:03.787Z,66.08
2023-08-11T23:16:33.372Z,66.14
2023-08-11T23:19:01.647Z,66.18
2023-08-11T23:21:30.378Z,66.23
2023-08-11T23:23:58.260Z,66.37
2023-08-11T23:26:26.592Z,66.41
2023-08-11T23:28:54.302Z,66.39
2023-08-11T23:31:22.048Z,66.43
2023-08-11T23:33:49.812Z,66.47
2023-08-11T23:36:17.534Z,66.53
2023-08-11T23:38:45.218Z,66.55
2023-08-11T23:41:12.909Z,66.65
2023-08-11T23:43:40.614Z,66.68
2023-08-11T23:46:14.301Z,66.78
2023-08-11T23:48:45.691Z,67.21
2023-08-11T23:51:13.463Z,67.27
2023-08-11T23:53:41.483Z,67.33
2023-08-11T23:56:09.301Z,67.16
2023-08-11T23:58:39.125Z,67.05
